createdAt,value
2022-12-18T00:02:24.674Z,79.57
2022-12-18T00:04:58.211Z,78.85
2022-12-18T00:07:29.166Z,78.45
2022-12-18T00:09:58.984Z,78.38
2022-12-18T00:12:30.305Z,78.46
2022-12-18T00:15:02.304Z,78.14
2022-12-18T00:17:42.460Z,77.62
2022-12-18T00:20:22.779Z,77.52
2022-12-18T00:22:55.807Z,77.68
2022-12-18T00:25:29.712Z,76.90
2022-12-18T00:28:05.716Z,76.54
2022-12-18T00:30:35.583Z,76.52
2022-12-18T00:33:09.733Z,76.18
2022-12-18T00:35:43.175Z,76.17
2022-12-18T00:38:16.759Z,76.22
2022-12-18T00:40:52.761Z,76.35
2022-12-18T00:43:22.022Z,76.49
2022-12-18T00:45:53.936Z,76.06
2022-12-18T00:48:26.316Z,75.60
2022-12-18T00:51:05.091Z,75.41
2022-12-18T00:53:36.301Z,74.96
2022-12-18T00:56:06.595Z,75.11
2022-12-18T00:58:40.724Z,74.85
2022-12-18T01:01:12.105Z,74.89
2022-12-18T01:03:46.220Z,74.72
2022-12-18T01:06:19.635Z,75.45
2022-12-18T01:08:50.089Z,75.80
2022-12-18T01:11:23.140Z,76.55
2022-12-18T01:13:53.078Z,76.34
2022-12-18T01:16:26.440Z,75.85
2022-12-18T01:18:57.379Z,75.94
2022-12-18T01:21:29.759Z,75.66
2022-12-18T01:24:01.083Z,76.12
2022-12-18T01:26:31.380Z,75.89
2022-12-18T01:29:01.805Z,75.86
2022-12-18T01:31:35.571Z,75.94
2022-12-18T01:34:06.896Z,75.94
2022-12-18T01:36:42.540Z,76.49
2022-12-18T01:39:16.097Z,77.03
2022-12-18T01:41:58.735Z,77.38
2022-12-18T01:45:04.330Z,77.46
2022-12-18T01:47:40.095Z,77.92
2022-12-18T01:50:14.444Z,78.02
2022-12-18T01:52:50.657Z,77.60
2022-12-18T01:55:22.897Z,77.34
2022-12-18T01:57:56.164Z,77.51
2022-12-18T02:00:27.495Z,77.64
2022-12-18T02:02:58.164Z,77.29
2022-12-18T02:05:38.362Z,77.33
2022-12-18T02:08:17.527Z,77.27
2022-12-18T02:10:57.112Z,77.05
2022-12-18T02:13:35.122Z,77.27
2022-12-18T02:16:12.519Z,77.17
2022-12-18T02:18:49.023Z,76.95
2022-12-18T02:21:31.452Z,76.52
2022-12-18T02:24:17.472Z,76.47
2022-12-18T02:26:54.098Z,76.44
2022-12-18T02:29:29.944Z,76.58
2022-12-18T02:32:03.002Z,76.93
2022-12-18T02:34:36.623Z,77.23
2022-12-18T02:37:10.883Z,77.29
2022-12-18T02:39:44.125Z,76.65
2022-12-18T02:42:20.032Z,76.88
2022-12-18T02:44:54.341Z,76.79
2022-12-18T02:47:30.929Z,77.17
2022-12-18T02:50:11.402Z,77.47
2022-12-18T02:52:49.634Z,78.16
2022-12-18T02:55:31.184Z,78.33
2022-12-18T02:58:16.443Z,78.36
2022-12-18T03:00:54.272Z,77.96
2022-12-18T03:03:31.274Z,77.12
2022-12-18T03:06:05.569Z,77.52
2022-12-18T03:08:41.166Z,77.97
2022-12-18T03:11:13.253Z,77.44
2022-12-18T03:13:51.575Z,78.52
2022-12-18T03:16:26.339Z,77.11
2022-12-18T03:19:01.666Z,76.64
2022-12-18T03:21:36.607Z,77.63
2022-12-18T03:24:09.822Z,78.48
2022-12-18T03:26:42.923Z,78.36
2022-12-18T03:29:21.548Z,77.69
2022-12-18T03:31:57.152Z,77.39
2022-12-18T03:34:32.410Z,76.54
2022-12-18T03:37:05.958Z,76.23
2022-12-18T03:39:36.649Z,76.09
2022-12-18T03:42:14.526Z,76.00
2022-12-18T03:44:59.760Z,75.71
2022-12-18T03:47:34.410Z,75.64
2022-12-18T03:50:12.981Z,76.30
2022-12-18T03:52:51.008Z,76.73
2022-12-18T03:55:23.472Z,76.50
2022-12-18T03:58:01.306Z,76.21
2022-12-18T04:00:41.672Z,76.12
2022-12-18T04:03:14.152Z,76.01
2022-12-18T04:05:50.185Z,75.95
2022-12-18T04:08:22.783Z,75.77
2022-12-18T04:11:03.168Z,75.93
2022-12-18T04:13:38.556Z,75.62
2022-12-18T04:16:14.909Z,75.39
2022-12-18T04:18:46.921Z,75.01
2022-12-18T04:21:18.287Z,75.04
2022-12-18T04:23:50.409Z,74.96
2022-12-18T04:26:22.919Z,74.70
2022-12-18T04:29:19.019Z,74.71
2022-12-18T04:31:51.991Z,75.06
2022-12-18T04:34:22.492Z,75.90
2022-12-18T04:36:55.806Z,76.29
2022-12-18T04:39:26.680Z,76.59
2022-12-18T04:41:59.370Z,76.35
2022-12-18T04:44:29.090Z,77.04
2022-12-18T04:47:01.476Z,77.20
2022-12-18T04:49:31.241Z,76.57
2022-12-18T04:52:01.089Z,76.54
2022-12-18T04:54:31.612Z,76.16
2022-12-18T04:57:01.412Z,76.07
2022-12-18T04:59:31.475Z,75.13
2022-12-18T05:02:03.886Z,74.49
2022-12-18T05:04:33.760Z,75.37
2022-12-18T05:07:03.675Z,75.70
2022-12-18T05:09:33.643Z,76.90
2022-12-18T05:12:03.380Z,76.49
2022-12-18T05:14:33.161Z,76.90
2022-12-18T05:17:05.610Z,77.11
2022-12-18T05:19:35.543Z,76.97
2022-12-18T05:22:05.294Z,77.03
2022-12-18T05:24:35.107Z,76.77
2022-12-18T05:27:04.915Z,76.54
2022-12-18T05:29:34.776Z,76.47
2022-12-18T05:32:07.642Z,76.87
2022-12-18T05:34:37.422Z,76.81
2022-12-18T05:37:07.121Z,76.60
2022-12-18T05:39:36.878Z,76.35
2022-12-18T05:42:06.842Z,76.21
2022-12-18T05:44:36.645Z,76.05
2022-12-18T05:47:08.987Z,76.16
2022-12-18T05:49:38.848Z,76.14
2022-12-18T05:52:08.699Z,76.51
2022-12-18T05:54:38.566Z,76.82
2022-12-18T05:57:08.371Z,77.44
2022-12-18T05:59:38.451Z,77.26
2022-12-18T06:02:10.956Z,76.96
2022-12-18T06:04:40.793Z,77.33
2022-12-18T06:07:10.587Z,77.16
2022-12-18T06:09:40.387Z,77.08
2022-12-18T06:12:10.724Z,76.84
2022-12-18T06:14:40.499Z,77.00
2022-12-18T06:17:12.882Z,77.76
2022-12-18T06:19:42.626Z,77.56
2022-12-18T06:22:12.376Z,77.07
2022-12-18T06:24:42.113Z,77.32
2022-12-18T06:27:11.868Z,76.98
2022-12-18T06:29:41.642Z,76.97
2022-12-18T06:32:14.027Z,76.71
2022-12-18T06:34:44.736Z,76.99
2022-12-18T06:37:14.523Z,76.80
2022-12-18T06:39:44.327Z,76.93
2022-12-18T06:42:14.074Z,76.96
2022-12-18T06:44:43.841Z,76.78
2022-12-18T06:47:16.220Z,76.48
2022-12-18T06:49:46.636Z,76.84
2022-12-18T06:52:16.397Z,76.81
2022-12-18T06:54:46.158Z,76.68
2022-12-18T06:57:15.918Z,76.66
2022-12-18T06:59:45.917Z,76.42
2022-12-18T07:02:18.626Z,76.52
2022-12-18T07:04:48.468Z,76.60
2022-12-18T07:07:18.234Z,76.62
2022-12-18T07:09:48.031Z,76.47
2022-12-18T07:12:17.801Z,76.50
2022-12-18T07:14:47.975Z,77.20
2022-12-18T07:17:20.368Z,77.05
2022-12-18T07:19:50.155Z,76.99
2022-12-18T07:22:19.939Z,77.17
2022-12-18T07:24:50.056Z,77.43
2022-12-18T07:27:19.847Z,78.38
2022-12-18T07:29:49.595Z,78.91
2022-12-18T07:32:24.065Z,78.26
2022-12-18T07:34:54.054Z,78.16
2022-12-18T07:37:27.851Z,78.10
2022-12-18T07:39:58.057Z,77.99
2022-12-18T07:42:35.889Z,78.13
2022-12-18T07:45:06.983Z,78.46
2022-12-18T07:47:42.255Z,78.41
2022-12-18T07:50:12.538Z,78.76
2022-12-18T07:52:47.696Z,80.80
2022-12-18T07:55:21.744Z,81.66
2022-12-18T07:57:56.417Z,81.51
2022-12-18T08:00:32.784Z,81.35
2022-12-18T08:03:08.388Z,81.07
2022-12-18T08:05:38.291Z,81.14
2022-12-18T08:08:08.550Z,81.57
2022-12-18T08:10:42.370Z,82.36
2022-12-18T08:13:12.276Z,82.18
2022-12-18T08:15:42.033Z,81.91
2022-12-18T08:18:18.470Z,82.42
2022-12-18T08:20:48.389Z,81.65
2022-12-18T08:23:26.494Z,81.86
2022-12-18T08:25:58.428Z,81.42
2022-12-18T08:28:28.303Z,81.29
2022-12-18T08:30:58.295Z,81.12
2022-12-18T08:33:36.044Z,80.73
2022-12-18T08:36:06.904Z,80.70
2022-12-18T08:38:39.846Z,81.09
2022-12-18T08:41:16.474Z,80.88
2022-12-18T08:44:02.655Z,81.89
2022-12-18T08:46:37.861Z,82.35
2022-12-18T08:49:13.918Z,82.37
2022-12-18T08:51:44.285Z,82.98
2022-12-18T08:54:16.514Z,82.66
2022-12-18T08:56:50.624Z,82.39
2022-12-18T08:59:20.781Z,82.72
2022-12-18T09:01:51.867Z,82.20
2022-12-18T09:04:26.600Z,82.29
2022-12-18T09:07:00.173Z,81.97
2022-12-18T09:09:29.948Z,82.19
2022-12-18T09:12:01.127Z,82.00
2022-12-18T09:14:39.226Z,82.10
2022-12-18T09:17:09.062Z,82.24
2022-12-18T09:19:41.516Z,82.14
2022-12-18T09:22:14.791Z,82.31
2022-12-18T09:24:47.749Z,82.44
2022-12-18T09:27:20.744Z,82.69
2022-12-18T09:29:52.515Z,83.04
2022-12-18T09:32:23.407Z,83.27
2022-12-18T09:34:59.747Z,83.31
2022-12-18T09:37:32.786Z,83.05
2022-12-18T09:40:02.622Z,84.76
2022-12-18T09:42:36.923Z,84.84
2022-12-18T09:45:08.677Z,84.34
2022-12-18T09:47:41.469Z,84.42
2022-12-18T09:50:28.165Z,84.06
2022-12-18T09:53:08.794Z,83.66
2022-12-18T09:55:43.526Z,83.35
2022-12-18T09:58:20.668Z,83.01
2022-12-18T10:00:50.856Z,82.98
2022-12-18T10:03:21.753Z,81.88
2022-12-18T10:06:02.872Z,81.38
2022-12-18T10:08:45.862Z,81.28
2022-12-18T10:11:29.424Z,80.87
2022-12-18T10:14:12.719Z,80.39
2022-12-18T10:16:56.918Z,79.96
2022-12-18T10:19:41.026Z,79.46
2022-12-18T10:22:25.680Z,79.77
2022-12-18T10:25:05.493Z,79.28
2022-12-18T10:27:36.672Z,78.94
2022-12-18T10:30:16.673Z,78.47
2022-12-18T10:32:46.720Z,78.28
2022-12-18T10:35:22.801Z,77.28
2022-12-18T10:38:10.311Z,77.13
2022-12-18T10:40:53.773Z,76.57
2022-12-18T10:43:27.562Z,76.63
2022-12-18T10:46:22.495Z,76.58
2022-12-18T10:48:58.690Z,75.29
2022-12-18T10:51:32.467Z,75.03
2022-12-18T10:54:08.682Z,73.18
2022-12-18T10:56:40.652Z,72.59
2022-12-18T10:59:15.906Z,72.58
2022-12-18T11:01:57.063Z,71.94
2022-12-18T11:04:28.786Z,72.35
2022-12-18T11:07:04.309Z,72.18
2022-12-18T11:09:38.790Z,71.11
2022-12-18T11:12:19.525Z,70.16
2022-12-18T11:14:51.900Z,70.16
2022-12-18T11:17:26.280Z,69.80
2022-12-18T11:20:04.865Z,69.50
2022-12-18T11:22:37.539Z,68.71
2022-12-18T11:25:32.271Z,68.76
2022-12-18T11:28:09.815Z,68.99
2022-12-18T11:30:41.256Z,68.08
2022-12-18T11:33:18.512Z,67.70
2022-12-18T11:35:54.538Z,68.09
2022-12-18T11:38:30.461Z,67.92
2022-12-18T11:41:06.742Z,68.58
2022-12-18T11:43:45.037Z,68.30
2022-12-18T11:46:19.971Z,68.45
2022-12-18T11:49:03.048Z,68.41
2022-12-18T11:51:39.152Z,68.84
2022-12-18T11:54:17.484Z,69.15
2022-12-18T11:56:57.477Z,69.79
2022-12-18T11:59:37.818Z,70.47
2022-12-18T12:02:33.670Z,70.56
2022-12-18T12:05:24.382Z,71.18
2022-12-18T12:08:00.844Z,71.76
2022-12-18T12:10:45.815Z,71.80
2022-12-18T12:13:45.478Z,72.23
2022-12-18T12:16:25.213Z,73.51
2022-12-18T12:19:07.375Z,74.12
2022-12-18T12:21:44.324Z,72.77
2022-12-18T12:24:30.595Z,73.84
2022-12-18T12:27:13.353Z,73.81
2022-12-18T12:30:02.101Z,74.30
2022-12-18T12:32:49.360Z,74.52
2022-12-18T12:35:31.738Z,74.45
2022-12-18T12:38:11.958Z,74.27
2022-12-18T12:40:55.333Z,73.81
2022-12-18T12:43:35.127Z,73.60
2022-12-18T12:46:13.931Z,73.49
2022-12-18T12:48:49.193Z,74.12
2022-12-18T12:51:23.330Z,73.69
2022-12-18T12:53:53.432Z,73.91
2022-12-18T12:56:24.992Z,73.17
2022-12-18T12:59:05.972Z,72.21
2022-12-18T13:01:51.418Z,71.88
2022-12-18T13:04:31.566Z,71.71
2022-12-18T13:07:09.019Z,72.35
2022-12-18T13:10:17.482Z,71.99
2022-12-18T13:12:57.883Z,72.72
2022-12-18T13:15:36.856Z,72.18
2022-12-18T13:18:30.111Z,72.10
2022-12-18T13:21:11.899Z,71.63
2022-12-18T13:23:42.286Z,71.58
2022-12-18T13:26:36.923Z,71.33
2022-12-18T13:29:09.804Z,71.40
2022-12-18T13:32:09.615Z,70.41
2022-12-18T13:34:41.993Z,70.68
2022-12-18T13:37:46.039Z,70.40
2022-12-18T13:41:01.074Z,70.56
2022-12-18T13:43:34.916Z,71.44
2022-12-18T13:46:20.884Z,71.46
2022-12-18T13:48:55.921Z,71.34
2022-12-18T13:51:29.551Z,71.95
2022-12-18T13:54:02.692Z,71.50
2022-12-18T13:59:38.446Z,67.91
2022-12-18T14:02:18.087Z,68.55
2022-12-18T14:04:50.036Z,69.04
2022-12-18T14:07:24.651Z,67.81
2022-12-18T14:10:06.439Z,68.73
2022-12-18T14:13:03.119Z,69.40
2022-12-18T14:15:38.530Z,68.30
2022-12-18T14:18:23.492Z,68.24
2022-12-18T14:20:55.056Z,69.32
2022-12-18T14:23:40.235Z,69.08
2022-12-18T14:26:26.412Z,67.93
2022-12-18T14:29:02.092Z,68.94
2022-12-18T14:31:35.812Z,67.71
2022-12-18T14:34:05.702Z,68.27
2022-12-18T14:36:35.559Z,68.26
2022-12-18T14:39:08.990Z,68.05
2022-12-18T14:41:38.869Z,65.27
2022-12-18T14:44:15.060Z,64.83
2022-12-18T14:46:47.489Z,64.20
2022-12-18T14:49:25.408Z,64.91
2022-12-18T14:51:58.675Z,65.83
2022-12-18T14:54:33.315Z,66.12
2022-12-18T14:57:09.715Z,66.76
2022-12-18T14:59:40.476Z,67.48
2022-12-18T15:02:22.381Z,67.92
2022-12-18T15:05:09.818Z,68.17
2022-12-18T15:07:47.327Z,67.90
2022-12-18T15:10:23.386Z,67.93
2022-12-18T15:13:09.520Z,68.27
2022-12-18T15:15:50.523Z,68.03
2022-12-18T15:18:22.730Z,68.39
2022-12-18T15:20:58.007Z,68.69
2022-12-18T15:23:30.283Z,69.15
2022-12-18T15:26:04.406Z,70.60
2022-12-18T15:28:39.060Z,70.63
2022-12-18T15:31:26.205Z,69.87
2022-12-18T15:34:21.924Z,69.91
2022-12-18T15:36:54.397Z,70.16
2022-12-18T15:39:24.626Z,69.94
2022-12-18T15:42:11.644Z,69.57
2022-12-18T15:44:41.765Z,70.29
2022-12-18T15:47:15.932Z,70.41
2022-12-18T15:49:46.978Z,70.71
2022-12-18T15:52:27.125Z,70.76
2022-12-18T15:55:09.692Z,70.66
2022-12-18T15:57:42.060Z,70.73
2022-12-18T16:00:16.360Z,71.58
2022-12-18T16:02:48.199Z,70.59
2022-12-18T16:05:21.194Z,70.96
2022-12-18T16:07:51.497Z,71.26
2022-12-18T16:10:21.467Z,71.30
2022-12-18T16:12:54.207Z,70.32
2022-12-18T16:15:24.960Z,70.60
2022-12-18T16:17:55.523Z,69.72
2022-12-18T16:20:26.475Z,66.03
2022-12-18T16:22:58.294Z,64.67
2022-12-18T16:25:30.310Z,64.99
2022-12-18T16:28:04.760Z,65.01
2022-12-18T16:30:40.587Z,65.89
2022-12-18T16:33:13.809Z,65.77
2022-12-18T16:35:44.627Z,66.54
2022-12-18T16:38:14.593Z,65.97
2022-12-18T16:41:05.589Z,66.64
2022-12-18T16:43:41.604Z,66.71
2022-12-18T16:46:12.906Z,66.50
2022-12-18T16:48:42.723Z,66.11
2022-12-18T16:51:12.679Z,66.08
2022-12-18T16:53:44.302Z,66.11
2022-12-18T16:56:14.832Z,66.32
2022-12-18T16:58:47.291Z,66.44
2022-12-18T17:01:20.940Z,66.01
2022-12-18T17:03:56.722Z,65.99
2022-12-18T17:06:27.507Z,65.94
2022-12-18T17:08:58.900Z,65.74
2022-12-18T17:11:30.751Z,64.33
2022-12-18T17:14:08.448Z,62.92
2022-12-18T17:16:42.291Z,63.56
2022-12-18T17:19:17.109Z,62.46
2022-12-18T17:21:48.289Z,62.71
2022-12-18T17:24:18.453Z,62.83
2022-12-18T17:26:51.412Z,62.33
2022-12-18T17:29:25.893Z,60.28
2022-12-18T17:31:56.308Z,60.39
2022-12-18T17:34:31.093Z,60.14
2022-12-18T17:37:04.912Z,59.83
2022-12-18T17:39:34.782Z,60.22
2022-12-18T17:42:05.300Z,59.51
2022-12-18T17:44:38.229Z,58.90
2022-12-18T17:47:10.155Z,59.51
2022-12-18T17:49:40.126Z,59.78
2022-12-18T17:52:10.354Z,60.07
2022-12-18T17:54:42.353Z,60.14
2022-12-18T17:57:12.358Z,61.04
2022-12-18T17:59:48.469Z,60.81
2022-12-18T18:02:18.349Z,60.65
2022-12-18T18:04:49.200Z,59.51
2022-12-18T18:07:19.111Z,60.23
2022-12-18T18:09:48.923Z,59.88
2022-12-18T18:12:31.243Z,58.25
2022-12-18T18:15:03.779Z,59.13
2022-12-18T18:17:35.670Z,59.42
2022-12-18T18:20:07.803Z,59.34
2022-12-18T18:22:38.818Z,58.45
2022-12-18T18:25:12.456Z,58.44
2022-12-18T18:27:44.129Z,58.39
2022-12-18T18:30:19.548Z,56.83
2022-12-18T18:32:56.596Z,56.80
2022-12-18T18:35:53.400Z,56.80
2022-12-18T18:38:24.027Z,57.21
2022-12-18T18:41:01.070Z,57.76
2022-12-18T18:43:31.825Z,58.82
2022-12-18T18:46:06.184Z,58.64
2022-12-18T18:48:41.752Z,58.17
2022-12-18T18:51:20.852Z,57.20
2022-12-18T18:53:53.981Z,57.99
2022-12-18T18:59:18.629Z,57.65
2022-12-18T19:01:52.806Z,57.38
2022-12-18T19:04:23.845Z,56.61
2022-12-18T19:06:53.759Z,54.73
2022-12-18T19:09:24.523Z,54.95
2022-12-18T19:12:07.850Z,55.79
2022-12-18T19:14:37.785Z,56.16
2022-12-18T19:17:10.380Z,56.17
2022-12-18T19:19:42.968Z,57.68
2022-12-18T19:22:14.196Z,57.53
2022-12-18T19:24:44.080Z,57.68
2022-12-18T19:27:13.928Z,57.36
2022-12-18T19:29:46.858Z,57.63
2022-12-18T19:32:20.321Z,58.24
2022-12-18T19:34:50.248Z,57.66
2022-12-18T19:37:20.476Z,58.96
2022-12-18T19:39:50.326Z,56.51
2022-12-18T19:42:29.280Z,56.63
2022-12-18T19:45:05.011Z,57.21
2022-12-18T19:47:38.415Z,57.91
2022-12-18T19:50:14.849Z,60.01
2022-12-18T19:52:44.842Z,62.26
2022-12-18T19:55:18.131Z,63.68
2022-12-18T19:57:48.874Z,64.95
2022-12-18T20:00:21.134Z,65.66
2022-12-18T20:03:00.114Z,66.08
2022-12-18T20:05:33.786Z,66.79
2022-12-18T20:08:05.623Z,67.25
2022-12-18T20:10:36.737Z,67.51
2022-12-18T20:13:07.554Z,68.29
2022-12-18T20:15:40.509Z,68.46
2022-12-18T20:18:24.300Z,68.85
2022-12-18T20:20:55.193Z,68.58
2022-12-18T20:23:27.811Z,68.08
2022-12-18T20:25:58.622Z,68.29
2022-12-18T20:28:28.898Z,68.97
2022-12-18T20:31:03.006Z,69.92
2022-12-18T20:33:35.579Z,69.98
2022-12-18T20:36:09.520Z,69.94
2022-12-18T20:38:40.804Z,68.85
2022-12-18T20:41:14.321Z,69.52
2022-12-18T20:43:47.979Z,70.03
2022-12-18T20:46:19.600Z,70.48
2022-12-18T20:48:52.014Z,71.06
2022-12-18T20:51:26.799Z,71.04
2022-12-18T20:53:59.708Z,71.26
2022-12-18T20:56:33.351Z,70.80
2022-12-18T20:59:05.203Z,70.67
2022-12-18T21:01:36.143Z,70.44
2022-12-18T21:04:12.479Z,71.45
2022-12-18T21:06:49.382Z,71.26
2022-12-18T21:09:21.988Z,71.23
2022-12-18T21:12:04.601Z,71.64
2022-12-18T21:14:35.403Z,71.09
2022-12-18T21:17:05.286Z,71.07
2022-12-18T21:19:39.199Z,71.42
2022-12-18T21:22:16.050Z,71.18
2022-12-18T21:24:45.829Z,71.38
2022-12-18T21:27:17.618Z,71.23
2022-12-18T21:29:48.105Z,71.51
2022-12-18T21:32:20.877Z,71.47
2022-12-18T21:34:54.684Z,71.21
2022-12-18T21:37:28.159Z,71.92
2022-12-18T21:39:58.018Z,72.31
2022-12-18T21:42:40.485Z,72.51
2022-12-18T21:45:14.978Z,72.20
2022-12-18T21:47:44.711Z,72.11
2022-12-18T21:50:20.502Z,71.68
2022-12-18T21:52:50.423Z,71.32
2022-12-18T21:55:20.313Z,71.54
2022-12-18T21:57:50.316Z,72.08
2022-12-18T22:00:21.024Z,72.63
2022-12-18T22:03:15.554Z,72.41
2022-12-18T22:05:45.217Z,72.77
2022-12-18T22:08:15.192Z,73.01
2022-12-18T22:10:52.627Z,73.13
2022-12-18T22:13:28.596Z,72.60
2022-12-18T22:16:04.728Z,73.07
2022-12-18T22:18:34.680Z,73.39
2022-12-18T22:21:10.206Z,73.37
2022-12-18T22:23:39.960Z,73.59
2022-12-18T22:26:10.818Z,73.98
2022-12-18T22:28:53.019Z,73.95
2022-12-18T22:31:22.939Z,73.67
2022-12-18T22:33:53.874Z,74.43
2022-12-18T22:36:26.656Z,74.65
2022-12-18T22:38:56.449Z,74.62
2022-12-18T22:41:26.237Z,74.75
2022-12-18T22:43:58.649Z,74.95
2022-12-18T22:46:29.392Z,74.51
2022-12-18T22:48:59.151Z,75.38
2022-12-18T22:51:31.553Z,75.07
2022-12-18T22:54:01.500Z,74.95
2022-12-18T22:56:31.876Z,74.55
2022-12-18T22:59:01.803Z,74.44
2022-12-18T23:01:33.045Z,74.05
2022-12-18T23:04:05.079Z,74.98
2022-12-18T23:06:37.446Z,74.82
2022-12-18T23:09:07.192Z,75.35
2022-12-18T23:11:36.935Z,75.15
2022-12-18T23:14:06.703Z,74.84
2022-12-18T23:16:36.521Z,74.72
2022-12-18T23:19:06.804Z,74.59
2022-12-18T23:21:39.870Z,74.52
2022-12-18T23:24:10.593Z,74.18
2022-12-18T23:26:40.722Z,74.63
2022-12-18T23:29:10.905Z,74.28
2022-12-18T23:31:42.581Z,74.29
2022-12-18T23:34:15.579Z,73.41
2022-12-18T23:36:49.970Z,73.77
2022-12-18T23:39:29.412Z,74.26
2022-12-18T23:42:00.393Z,74.93
2022-12-18T23:44:30.346Z,75.19
2022-12-18T23:47:00.152Z,76.39
2022-12-18T23:49:29.936Z,77.11
2022-12-18T23:52:02.423Z,78.43
2022-12-18T23:54:33.283Z,79.01
2022-12-18T23:57:03.817Z,80.49
2022-12-18T23:59:33.885Z,81.25
